PWSweather.com
Personal Weather Stations
Station Observations
WAIROAHB
Wairoa, Northern Hawkes Bay -NZ 4108

WairoaNorthern Hawkes Bay -NZ 4108

Lat: -39.04516934, Lon: 177.4263989

Elevation: 156

Station Type: WS3083

http://wairoa.net/weather/index.htm

High Low Average
Temperature 0.0°F0.0°F 0.0°F0.0°F 0.0°F0.0°F
Dew Point 0.0°F0.0°F 0.0°F0.0°F 0.0°F0.0°F
Winds Calm -Calm - Calm Calm Calm Calm
Wind Gusts -- -- --
Humidity 0% 0% 0%
Pressure 0.00 in0.00 in 0.00 in0.00 in -
Precipitation 0.00 in0.0 mm - -
Hour Temp Dew Point Humidity Winds Wind Gusts Pressure Precip Precip Rate Daily Precip Total
12:00 AM 66.4°F19.1°C 64.6°F18.1°C 94% Calm Calm -- 29.87 in1011.5 mb 0.00 in0.0 mm 0.00 in0.0 mm 0.00 in0.0 mm
12:10 AM 66.4°F19.1°C 64.6°F18.1°C 94% Calm Calm -- 29.87 in1011.5 mb 0.00 in0.0 mm 0.00 in0.0 mm 0.00 in0.0 mm
12:20 AM 66.4°F19.1°C 64.6°F18.1°C 94% Calm Calm -- 29.86 in1011.2 mb 0.00 in0.0 mm 0.00 in0.0 mm 0.00 in0.0 mm
12:30 AM 66.4°F19.1°C 64.6°F18.1°C 94% Calm Calm -- 29.87 in1011.5 mb 0.00 in0.0 mm 0.00 in0.0 mm 0.00 in0.0 mm
12:40 AM 66.4°F19.1°C 64.6°F18.1°C 94% Calm Calm -- 29.87 in1011.5 mb 0.00 in0.0 mm 0.00 in0.0 mm 0.00 in0.0 mm
12:50 AM 66.2°F19.0°C 64.4°F18.0°C 94% Calm Calm -- 29.87 in1011.5 mb 0.00 in0.0 mm 0.00 in0.0 mm 0.00 in0.0 mm
01:00 AM 66.2°F19.0°C 64.8°F18.2°C 95% Calm Calm -- 29.86 in1011.2 mb 0.00 in0.0 mm 0.00 in0.0 mm 0.00 in0.0 mm
01:10 AM 66.4°F19.1°C 64.9°F18.3°C 95% Calm Calm -- 29.86 in1011.2 mb 0.00 in0.0 mm 0.00 in0.0 mm 0.00 in0.0 mm
01:20 AM 66.4°F19.1°C 64.9°F18.3°C 95% Calm Calm -- 29.86 in1011.2 mb 0.00 in0.0 mm 0.00 in0.0 mm 0.00 in0.0 mm
01:30 AM 66.2°F19.0°C 64.8°F18.2°C 95% Calm Calm -- 29.85 in1010.8 mb 0.00 in0.0 mm 0.00 in0.0 mm 0.00 in0.0 mm
01:40 AM 66.2°F19.0°C 64.8°F18.2°C 95% Calm Calm -- 29.86 in1011.2 mb 0.00 in0.0 mm 0.00 in0.0 mm 0.00 in0.0 mm
01:50 AM 66.2°F19.0°C 64.8°F18.2°C 95% Calm Calm -- 29.85 in1010.8 mb 0.00 in0.0 mm 0.00 in0.0 mm 0.00 in0.0 mm
02:00 AM 66.0°F18.9°C 64.9°F18.3°C 96% Calm Calm -- 29.85 in1010.8 mb 0.00 in0.0 mm 0.00 in0.0 mm 0.00 in0.0 mm
02:10 AM 66.0°F18.9°C 64.9°F18.3°C 96% Calm Calm -- 29.85 in1010.8 mb 0.00 in0.0 mm 0.00 in0.0 mm 0.00 in0.0 mm
02:20 AM 65.8°F18.8°C 64.7°F18.2°C 96% Calm Calm -- 29.85 in1010.8 mb 0.00 in0.0 mm 0.00 in0.0 mm 0.00 in0.0 mm
02:30 AM 65.7°F18.7°C 64.5°F18.1°C 96% Calm Calm -- 29.85 in1010.8 mb 0.00 in0.0 mm 0.00 in0.0 mm 0.00 in0.0 mm
02:40 AM 65.5°F18.6°C 64.3°F17.9°C 96% Calm Calm -- 29.85 in1010.8 mb 0.00 in0.0 mm 0.00 in0.0 mm 0.00 in0.0 mm
02:50 AM 65.5°F18.6°C 64.6°F18.1°C 97% Calm Calm -- 29.84 in1010.5 mb 0.00 in0.0 mm 0.00 in0.0 mm 0.00 in0.0 mm
03:00 AM 65.3°F18.5°C 64.5°F18.1°C 97% Calm Calm -- 29.85 in1010.8 mb 0.00 in0.0 mm 0.00 in0.0 mm 0.00 in0.0 mm
03:10 AM 65.3°F18.5°C 64.5°F18.1°C 97% Calm Calm -- 29.85 in1010.8 mb 0.00 in0.0 mm 0.00 in0.0 mm 0.00 in0.0 mm
03:20 AM 65.3°F18.5°C 64.7°F18.2°C 98% Calm Calm -- 29.85 in1010.8 mb 0.00 in0.0 mm 0.00 in0.0 mm 0.00 in0.0 mm
03:30 AM 65.1°F18.4°C 64.6°F18.1°C 98% Calm Calm -- 29.85 in1010.8 mb 0.00 in0.0 mm 0.00 in0.0 mm 0.00 in0.0 mm
03:40 AM 64.9°F18.3°C 64.4°F18.0°C 98% Calm Calm -- 29.85 in1010.8 mb 0.00 in0.0 mm 0.00 in0.0 mm 0.00 in0.0 mm
03:50 AM 64.8°F18.2°C 64.2°F17.9°C 98% Calm Calm -- 29.86 in1011.2 mb 0.00 in0.0 mm 0.00 in0.0 mm 0.00 in0.0 mm
04:00 AM 64.8°F18.2°C 64.2°F17.9°C 98% Calm Calm -- 29.86 in1011.2 mb 0.00 in0.0 mm 0.00 in0.0 mm 0.00 in0.0 mm
04:10 AM 64.9°F18.3°C 64.4°F18.0°C 98% Calm Calm -- 29.85 in1010.8 mb 0.00 in0.0 mm 0.00 in0.0 mm 0.00 in0.0 mm
04:20 AM 64.9°F18.3°C 64.4°F18.0°C 98% Calm Calm -- 29.86 in1011.2 mb 0.00 in0.0 mm 0.00 in0.0 mm 0.00 in0.0 mm
04:30 AM 64.8°F18.2°C 64.2°F17.9°C 98% Calm Calm -- 29.86 in1011.2 mb 0.00 in0.0 mm 0.00 in0.0 mm 0.00 in0.0 mm
04:40 AM 64.8°F18.2°C 64.2°F17.9°C 98% Calm Calm -- 29.86 in1011.2 mb 0.00 in0.0 mm 0.00 in0.0 mm 0.00 in0.0 mm
04:50 AM 64.8°F18.2°C 64.2°F17.9°C 98% Calm Calm -- 29.86 in1011.2 mb 0.00 in0.0 mm 0.00 in0.0 mm 0.00 in0.0 mm
05:20 AM 65.5°F18.6°C 65.2°F18.4°C 99% Calm Calm -- 29.87 in1011.5 mb 0.00 in0.0 mm 0.00 in0.0 mm 0.00 in0.0 mm
05:30 AM 66.0°F18.9°C 65.5°F18.6°C 98% Calm Calm -- 29.87 in1011.5 mb 0.00 in0.0 mm 0.00 in0.0 mm 0.00 in0.0 mm
05:40 AM 66.9°F19.4°C 65.8°F18.8°C 96% Calm Calm -- 29.86 in1011.2 mb 0.00 in0.0 mm 0.00 in0.0 mm 0.00 in0.0 mm
05:50 AM 68.9°F20.5°C 66.8°F19.3°C 93% Calm Calm -- 29.87 in1011.5 mb 0.00 in0.0 mm 0.00 in0.0 mm 0.00 in0.0 mm
06:00 AM 70.7°F21.5°C 66.3°F19.1°C 86% Calm Calm -- 29.87 in1011.5 mb 0.00 in0.0 mm 0.00 in0.0 mm 0.00 in0.0 mm
06:10 AM 71.2°F21.8°C 65.5°F18.6°C 82% Calm Calm -- 29.87 in1011.5 mb 0.00 in0.0 mm 0.00 in0.0 mm 0.00 in0.0 mm
06:20 AM 71.1°F21.7°C 65.3°F18.5°C 82% Calm Calm -- 29.87 in1011.5 mb 0.00 in0.0 mm 0.00 in0.0 mm 0.00 in0.0 mm
06:30 AM 70.3°F21.3°C 65.0°F18.3°C 83% Calm Calm -- 29.88 in1011.9 mb 0.00 in0.0 mm 0.00 in0.0 mm 0.00 in0.0 mm
06:40 AM 70.0°F21.1°C 65.0°F18.3°C 84% Calm Calm -- 29.89 in1012.2 mb 0.00 in0.0 mm 0.00 in0.0 mm 0.00 in0.0 mm
06:50 AM 69.8°F21.0°C 64.8°F18.2°C 84% Calm Calm -- 29.89 in1012.2 mb 0.00 in0.0 mm 0.00 in0.0 mm 0.00 in0.0 mm
07:00 AM 71.2°F21.8°C 66.5°F19.2°C 85% Calm Calm -- 29.89 in1012.2 mb 0.00 in0.0 mm 0.00 in0.0 mm 0.00 in0.0 mm
07:10 AM 72.0°F22.2°C 66.2°F19.0°C 82% Calm Calm -- 29.89 in1012.2 mb 0.00 in0.0 mm 0.00 in0.0 mm 0.00 in0.0 mm
07:20 AM 73.2°F22.9°C 66.0°F18.9°C 78% Calm Calm -- 29.88 in1011.9 mb 0.00 in0.0 mm 0.00 in0.0 mm 0.00 in0.0 mm
07:30 AM 71.8°F22.1°C 65.3°F18.5°C 80% Calm Calm -- 29.89 in1012.2 mb 0.00 in0.0 mm 0.00 in0.0 mm 0.00 in0.0 mm
07:40 AM 72.5°F22.5°C 66.4°F19.1°C 81% Calm Calm -- 29.89 in1012.2 mb 0.00 in0.0 mm 0.00 in0.0 mm 0.00 in0.0 mm
07:50 AM 73.6°F23.1°C 66.0°F18.9°C 77% Calm Calm -- 29.89 in1012.2 mb 0.00 in0.0 mm 0.00 in0.0 mm 0.00 in0.0 mm
08:00 AM 72.5°F22.5°C 65.3°F18.5°C 78% Calm Calm -- 29.89 in1012.2 mb 0.00 in0.0 mm 0.00 in0.0 mm 0.00 in0.0 mm
08:10 AM 72.0°F22.2°C 65.1°F18.4°C 79% Calm Calm 0.7 mph1.1 kmh 29.89 in1012.2 mb 0.00 in0.0 mm 0.00 in0.0 mm 0.00 in0.0 mm
08:20 AM 72.0°F22.2°C 66.2°F19.0°C 82% 0.7 mph S1.1 kmh S 5.4 mph8.7 kmh 29.89 in1012.2 mb 0.00 in0.0 mm 0.00 in0.0 mm 0.00 in0.0 mm
08:30 AM 72.5°F22.5°C 67.1°F19.5°C 83% 3.1 mph S5.0 kmh S 6.0 mph9.7 kmh 29.89 in1012.2 mb 0.00 in0.0 mm 0.00 in0.0 mm 0.00 in0.0 mm
08:40 AM 72.3°F22.4°C 66.9°F19.4°C 83% 2.2 mph SSW3.5 kmh SSW 6.0 mph9.7 kmh 29.89 in1012.2 mb 0.00 in0.0 mm 0.00 in0.0 mm 0.00 in0.0 mm
08:50 AM 72.1°F22.3°C 66.7°F19.3°C 83% 3.8 mph S6.1 kmh S 6.0 mph9.7 kmh 29.89 in1012.2 mb 0.00 in0.0 mm 0.00 in0.0 mm 0.00 in0.0 mm
09:00 AM 72.1°F22.3°C 67.1°F19.5°C 84% 4.5 mph S7.2 kmh S 6.9 mph11.1 kmh 29.89 in1012.2 mb 0.00 in0.0 mm 0.00 in0.0 mm 0.00 in0.0 mm
09:10 AM 72.9°F22.7°C 67.4°F19.7°C 83% 3.1 mph SW5.0 kmh SW 6.9 mph11.1 kmh 29.89 in1012.2 mb 0.00 in0.0 mm 0.00 in0.0 mm 0.00 in0.0 mm
09:20 AM 73.6°F23.1°C 67.8°F19.9°C 82% 3.1 mph S5.0 kmh S 7.6 mph12.2 kmh 29.89 in1012.2 mb 0.00 in0.0 mm 0.00 in0.0 mm 0.00 in0.0 mm
09:30 AM 72.9°F22.7°C 66.7°F19.3°C 81% 4.5 mph S7.2 kmh S 6.9 mph11.1 kmh 29.89 in1012.2 mb 0.00 in0.0 mm 0.00 in0.0 mm 0.00 in0.0 mm
09:40 AM 73.6°F23.1°C 67.1°F19.5°C 80% 5.4 mph S8.7 kmh S 8.3 mph13.4 kmh 29.90 in1012.5 mb 0.00 in0.0 mm 0.00 in0.0 mm 0.00 in0.0 mm
09:50 AM 73.9°F23.3°C 66.7°F19.3°C 78% 3.8 mph SSW6.1 kmh SSW 9.2 mph14.8 kmh 29.89 in1012.2 mb 0.00 in0.0 mm 0.00 in0.0 mm 0.00 in0.0 mm
10:00 AM 75.9°F24.4°C 68.2°F20.1°C 77% 3.1 mph S5.0 kmh S 6.0 mph9.7 kmh 29.89 in1012.2 mb 0.00 in0.0 mm 0.00 in0.0 mm 0.00 in0.0 mm
10:10 AM 75.9°F24.4°C 66.7°F19.3°C 73% 3.8 mph S6.1 kmh S 8.3 mph13.4 kmh 29.89 in1012.2 mb 0.00 in0.0 mm 0.00 in0.0 mm 0.00 in0.0 mm
10:20 AM 76.8°F24.9°C 67.9°F19.9°C 74% Calm Calm 8.3 mph13.4 kmh 29.89 in1012.2 mb 0.00 in0.0 mm 0.00 in0.0 mm 0.00 in0.0 mm
10:30 AM 77.2°F25.1°C 65.4°F18.6°C 67% 3.1 mph SE5.0 kmh SE 7.6 mph12.2 kmh 29.89 in1012.2 mb 0.00 in0.0 mm 0.00 in0.0 mm 0.00 in0.0 mm
10:40 AM 78.3°F25.7°C 66.4°F19.1°C 67% 2.2 mph S3.5 kmh S 6.0 mph9.7 kmh 29.89 in1012.2 mb 0.00 in0.0 mm 0.00 in0.0 mm 0.00 in0.0 mm
10:50 AM 77.4°F25.2°C 65.2°F18.4°C 66% 1.6 mph E2.6 kmh E 7.6 mph12.2 kmh 29.89 in1012.2 mb 0.00 in0.0 mm 0.00 in0.0 mm 0.00 in0.0 mm
11:00 AM 78.3°F25.7°C 66.0°F18.9°C 66% 1.6 mph SE2.6 kmh SE 6.0 mph9.7 kmh 29.88 in1011.9 mb 0.00 in0.0 mm 0.00 in0.0 mm 0.00 in0.0 mm
11:10 AM 78.3°F25.7°C 65.6°F18.7°C 65% 1.6 mph ESE2.6 kmh ESE 7.6 mph12.2 kmh 29.89 in1012.2 mb 0.00 in0.0 mm 0.00 in0.0 mm 0.00 in0.0 mm
11:20 AM 78.6°F25.9°C 65.9°F18.8°C 65% 5.4 mph ESE8.7 kmh ESE 7.6 mph12.2 kmh 29.89 in1012.2 mb 0.00 in0.0 mm 0.00 in0.0 mm 0.00 in0.0 mm
11:30 AM 77.7°F25.4°C 65.1°F18.4°C 65% 0.7 mph ESE1.1 kmh ESE 9.2 mph14.8 kmh 29.88 in1011.9 mb 0.00 in0.0 mm 0.00 in0.0 mm 0.00 in0.0 mm
11:40 AM 77.9°F25.5°C 66.1°F18.9°C 67% 2.2 mph SE3.5 kmh SE 7.6 mph12.2 kmh 29.88 in1011.9 mb 0.00 in0.0 mm 0.00 in0.0 mm 0.00 in0.0 mm
11:50 AM 77.9°F25.5°C 65.2°F18.4°C 65% 4.5 mph SE7.2 kmh SE 8.3 mph13.4 kmh 29.88 in1011.9 mb 0.00 in0.0 mm 0.00 in0.0 mm 0.00 in0.0 mm
12:00 PM 78.6°F25.9°C 65.9°F18.8°C 65% Calm Calm 8.3 mph13.4 kmh 29.88 in1011.9 mb 0.00 in0.0 mm 0.00 in0.0 mm 0.00 in0.0 mm
12:10 PM 79.0°F26.1°C 65.4°F18.6°C 63% 4.5 mph ESE7.2 kmh ESE 9.8 mph15.8 kmh 29.87 in1011.5 mb 0.00 in0.0 mm 0.00 in0.0 mm 0.00 in0.0 mm
12:20 PM 79.0°F26.1°C 65.8°F18.8°C 64% 4.5 mph SSE7.2 kmh SSE 9.2 mph14.8 kmh 29.87 in1011.5 mb 0.00 in0.0 mm 0.00 in0.0 mm 0.00 in0.0 mm
12:30 PM 79.2°F26.2°C 66.9°F19.4°C 66% 2.2 mph SE3.5 kmh SE 9.2 mph14.8 kmh 29.87 in1011.5 mb 0.00 in0.0 mm 0.00 in0.0 mm 0.00 in0.0 mm
12:40 PM 79.3°F26.3°C 67.0°F19.4°C 66% 4.5 mph SE7.2 kmh SE 9.2 mph14.8 kmh 29.86 in1011.2 mb 0.00 in0.0 mm 0.00 in0.0 mm 0.00 in0.0 mm
12:50 PM 79.2°F26.2°C 66.9°F19.4°C 66% 2.2 mph ESE3.5 kmh ESE 9.2 mph14.8 kmh 29.86 in1011.2 mb 0.00 in0.0 mm 0.00 in0.0 mm 0.00 in0.0 mm
01:00 PM 79.3°F26.3°C 67.5°F19.7°C 67% 3.8 mph SE6.1 kmh SE 9.8 mph15.8 kmh 29.86 in1011.2 mb 0.00 in0.0 mm 0.00 in0.0 mm 0.00 in0.0 mm
01:10 PM 80.1°F26.7°C 67.3°F19.6°C 65% 1.6 mph SE2.6 kmh SE 8.3 mph13.4 kmh 29.85 in1010.8 mb 0.00 in0.0 mm 0.00 in0.0 mm 0.00 in0.0 mm
01:20 PM 80.1°F26.7°C 67.7°F19.8°C 66% 1.6 mph SE2.6 kmh SE 8.3 mph13.4 kmh 29.85 in1010.8 mb 0.00 in0.0 mm 0.00 in0.0 mm 0.00 in0.0 mm
01:30 PM 81.7°F27.6°C 68.4°F20.2°C 64% 2.2 mph SE3.5 kmh SE 7.6 mph12.2 kmh 29.85 in1010.8 mb 0.00 in0.0 mm 0.00 in0.0 mm 0.00 in0.0 mm
01:40 PM 81.3°F27.4°C 67.6°F19.8°C 63% 3.8 mph SE6.1 kmh SE 9.8 mph15.8 kmh 29.85 in1010.8 mb 0.00 in0.0 mm 0.00 in0.0 mm 0.00 in0.0 mm
01:50 PM 80.8°F27.1°C 68.0°F20.0°C 65% 3.1 mph SE5.0 kmh SE 9.8 mph15.8 kmh 29.85 in1010.8 mb 0.00 in0.0 mm 0.00 in0.0 mm 0.00 in0.0 mm
02:00 PM 80.2°F26.8°C 67.9°F19.9°C 66% 4.5 mph ESE7.2 kmh ESE 9.2 mph14.8 kmh 29.85 in1010.8 mb 0.00 in0.0 mm 0.00 in0.0 mm 0.00 in0.0 mm
02:10 PM 79.7°F26.5°C 66.9°F19.4°C 65% 3.1 mph SE5.0 kmh SE 11.4 mph18.3 kmh 29.86 in1011.2 mb 0.00 in0.0 mm 0.00 in0.0 mm 0.00 in0.0 mm
02:20 PM 80.6°F27.0°C 66.9°F19.4°C 63% 0.7 mph SE1.1 kmh SE 10.7 mph17.2 kmh 29.85 in1010.8 mb 0.00 in0.0 mm 0.00 in0.0 mm 0.00 in0.0 mm
02:30 PM 79.2°F26.2°C 66.4°F19.1°C 65% Calm Calm 9.2 mph14.8 kmh 29.85 in1010.8 mb 0.00 in0.0 mm 0.00 in0.0 mm 0.00 in0.0 mm
02:40 PM 76.6°F24.8°C 66.6°F19.2°C 71% 0.7 mph SE1.1 kmh SE 9.8 mph15.8 kmh 29.86 in1011.2 mb 0.00 in0.0 mm 0.00 in0.0 mm 0.00 in0.0 mm
02:50 PM 75.2°F24.0°C 66.4°F19.1°C 74% 4.5 mph E7.2 kmh E 6.9 mph11.1 kmh 29.85 in1010.8 mb 0.00 in0.0 mm 0.00 in0.0 mm 0.00 in0.0 mm
03:00 PM 75.4°F24.1°C 66.6°F19.2°C 74% 4.5 mph NE7.2 kmh NE 9.8 mph15.8 kmh 29.86 in1011.2 mb 0.00 in0.0 mm 0.00 in0.0 mm 0.00 in0.0 mm
03:10 PM 75.0°F23.9°C 67.0°F19.4°C 76% Calm Calm 8.3 mph13.4 kmh 29.85 in1010.8 mb 0.00 in0.0 mm 0.00 in0.0 mm 0.00 in0.0 mm
03:20 PM 73.9°F23.3°C 65.6°F18.7°C 75% 4.5 mph N7.2 kmh N 16.8 mph27.0 kmh 29.86 in1011.2 mb 0.00 in0.0 mm 0.00 in0.0 mm 0.00 in0.0 mm
03:30 PM 74.3°F23.5°C 65.5°F18.6°C 74% 5.4 mph N8.7 kmh N 11.4 mph18.3 kmh 29.86 in1011.2 mb 0.00 in0.0 mm 0.00 in0.0 mm 0.00 in0.0 mm
03:40 PM 74.3°F23.5°C 65.9°F18.8°C 75% 0.7 mph NNW1.1 kmh NNW 9.2 mph14.8 kmh 29.86 in1011.2 mb 0.00 in0.0 mm 0.00 in0.0 mm 0.00 in0.0 mm
03:50 PM 74.5°F23.6°C 66.1°F18.9°C 75% 2.2 mph NW3.5 kmh NW 6.9 mph11.1 kmh 29.86 in1011.2 mb 0.00 in0.0 mm 0.00 in0.0 mm 0.00 in0.0 mm
04:00 PM 75.4°F24.1°C 65.4°F18.6°C 71% 3.1 mph N5.0 kmh N 6.0 mph9.7 kmh 29.87 in1011.5 mb 0.00 in0.0 mm 0.00 in0.0 mm 0.00 in0.0 mm
04:10 PM 74.7°F23.7°C 66.2°F19.0°C 75% 4.5 mph N7.2 kmh N 7.6 mph12.2 kmh 29.87 in1011.5 mb 0.00 in0.0 mm 0.00 in0.0 mm 0.00 in0.0 mm
04:20 PM 73.2°F22.9°C 67.1°F19.5°C 81% 4.5 mph NNW7.2 kmh NNW 9.2 mph14.8 kmh 29.87 in1011.5 mb 0.00 in0.0 mm 0.00 in0.0 mm 0.00 in0.0 mm
04:30 PM 73.0°F22.8°C 66.9°F19.4°C 81% 2.2 mph N3.5 kmh N 12.1 mph19.5 kmh 29.86 in1011.2 mb 0.00 in0.0 mm 0.00 in0.0 mm 0.00 in0.0 mm
04:40 PM 73.8°F23.2°C 66.9°F19.4°C 79% 2.2 mph N3.5 kmh N 6.9 mph11.1 kmh 29.86 in1011.2 mb 0.00 in0.0 mm 0.00 in0.0 mm 0.00 in0.0 mm
04:50 PM 73.9°F23.3°C 67.4°F19.7°C 80% 1.6 mph N2.6 kmh N 6.9 mph11.1 kmh 29.86 in1011.2 mb 0.00 in0.0 mm 0.00 in0.0 mm 0.00 in0.0 mm
05:00 PM 74.7°F23.7°C 67.8°F19.9°C 79% Calm Calm 3.8 mph6.1 kmh 29.87 in1011.5 mb 0.00 in0.0 mm 0.00 in0.0 mm 0.00 in0.0 mm
05:10 PM 76.1°F24.5°C 68.4°F20.2°C 77% Calm Calm 2.2 mph3.5 kmh 29.86 in1011.2 mb 0.00 in0.0 mm 0.00 in0.0 mm 0.00 in0.0 mm
05:20 PM 75.9°F24.4°C 67.9°F19.9°C 76% Calm Calm 3.1 mph5.0 kmh 29.87 in1011.5 mb 0.00 in0.0 mm 0.00 in0.0 mm 0.00 in0.0 mm
05:30 PM 73.6°F23.1°C 66.7°F19.3°C 79% 1.6 mph SW2.6 kmh SW 4.5 mph7.2 kmh 29.87 in1011.5 mb 0.00 in0.0 mm 0.00 in0.0 mm 0.00 in0.0 mm
05:40 PM 72.7°F22.6°C 66.9°F19.4°C 82% 5.4 mph SW8.7 kmh SW 6.9 mph11.1 kmh 29.87 in1011.5 mb 0.00 in0.0 mm 0.00 in0.0 mm 0.00 in0.0 mm
05:50 PM 72.1°F22.3°C 66.7°F19.3°C 83% 2.2 mph SW3.5 kmh SW 6.9 mph11.1 kmh 29.88 in1011.9 mb 0.00 in0.0 mm 0.00 in0.0 mm 0.00 in0.0 mm
06:00 PM 72.1°F22.3°C 66.7°F19.3°C 83% 1.6 mph SW2.6 kmh SW 4.5 mph7.2 kmh 29.88 in1011.9 mb 0.00 in0.0 mm 0.00 in0.0 mm 0.00 in0.0 mm
06:10 PM 71.6°F22.0°C 66.5°F19.2°C 84% 3.1 mph SW5.0 kmh SW 6.9 mph11.1 kmh 29.88 in1011.9 mb 0.00 in0.0 mm 0.00 in0.0 mm 0.00 in0.0 mm
06:20 PM 70.9°F21.6°C 66.9°F19.4°C 87% 2.2 mph SW3.5 kmh SW 6.9 mph11.1 kmh 29.88 in1011.9 mb 0.00 in0.0 mm 0.00 in0.0 mm 0.00 in0.0 mm
06:30 PM 70.5°F21.4°C 66.8°F19.3°C 88% 3.1 mph SW5.0 kmh SW 9.2 mph14.8 kmh 29.88 in1011.9 mb 0.00 in0.0 mm 0.00 in0.0 mm 0.00 in0.0 mm
06:40 PM 70.5°F21.4°C 66.8°F19.3°C 88% 0.7 mph SSW1.1 kmh SSW 4.5 mph7.2 kmh 29.88 in1011.9 mb 0.00 in0.0 mm 0.00 in0.0 mm 0.00 in0.0 mm
06:50 PM 70.2°F21.2°C 66.8°F19.3°C 89% 1.6 mph SW2.6 kmh SW 5.4 mph8.7 kmh 29.88 in1011.9 mb 0.00 in0.0 mm 0.00 in0.0 mm 0.00 in0.0 mm
07:00 PM 70.0°F21.1°C 66.6°F19.2°C 89% 3.1 mph SSW5.0 kmh SSW 4.5 mph7.2 kmh 29.89 in1012.2 mb 0.00 in0.0 mm 0.00 in0.0 mm 0.00 in0.0 mm
07:10 PM 69.6°F20.9°C 66.6°F19.2°C 90% 1.6 mph SW2.6 kmh SW 3.8 mph6.1 kmh 29.89 in1012.2 mb 0.00 in0.0 mm 0.00 in0.0 mm 0.00 in0.0 mm
07:20 PM 69.3°F20.7°C 66.6°F19.2°C 91% 2.2 mph SW3.5 kmh SW 5.4 mph8.7 kmh 29.89 in1012.2 mb 0.00 in0.0 mm 0.00 in0.0 mm 0.00 in0.0 mm
07:30 PM 68.7°F20.4°C 66.0°F18.9°C 91% Calm Calm 5.4 mph8.7 kmh 29.89 in1012.2 mb 0.00 in0.0 mm 0.00 in0.0 mm 0.00 in0.0 mm
07:40 PM 68.4°F20.2°C 65.7°F18.7°C 91% 1.6 mph SW2.6 kmh SW 3.8 mph6.1 kmh 29.90 in1012.5 mb 0.00 in0.0 mm 0.00 in0.0 mm 0.00 in0.0 mm
07:50 PM 68.0°F20.0°C 65.6°F18.7°C 92% Calm Calm 3.1 mph5.0 kmh 29.89 in1012.2 mb 0.00 in0.0 mm 0.00 in0.0 mm 0.00 in0.0 mm
08:00 PM 67.8°F19.9°C 65.8°F18.8°C 93% Calm Calm 2.2 mph3.5 kmh 29.90 in1012.5 mb 0.00 in0.0 mm 0.00 in0.0 mm 0.00 in0.0 mm
08:10 PM 67.5°F19.7°C 65.7°F18.7°C 94% Calm Calm 1.6 mph2.6 kmh 29.90 in1012.5 mb 0.00 in0.0 mm 0.00 in0.0 mm 0.00 in0.0 mm
08:20 PM 67.5°F19.7°C 65.7°F18.7°C 94% Calm Calm 1.6 mph2.6 kmh 29.90 in1012.5 mb 0.00 in0.0 mm 0.00 in0.0 mm 0.00 in0.0 mm
08:30 PM 67.3°F19.6°C 65.5°F18.6°C 94% Calm Calm 0.7 mph1.1 kmh 29.91 in1012.9 mb 0.00 in0.0 mm 0.00 in0.0 mm 0.00 in0.0 mm
08:40 PM 67.1°F19.5°C 65.3°F18.5°C 94% Calm Calm -- 29.91 in1012.9 mb 0.00 in0.0 mm 0.00 in0.0 mm 0.00 in0.0 mm
08:50 PM 66.7°F19.3°C 65.3°F18.5°C 95% Calm Calm -- 29.91 in1012.9 mb 0.00 in0.0 mm 0.00 in0.0 mm 0.00 in0.0 mm
09:00 PM 66.6°F19.2°C 65.1°F18.4°C 95% Calm Calm -- 29.91 in1012.9 mb 0.00 in0.0 mm 0.00 in0.0 mm 0.00 in0.0 mm
09:10 PM 66.2°F19.0°C 64.8°F18.2°C 95% Calm Calm -- 29.91 in1012.9 mb 0.00 in0.0 mm 0.00 in0.0 mm 0.00 in0.0 mm
09:20 PM 66.0°F18.9°C 64.9°F18.3°C 96% Calm Calm -- 29.91 in1012.9 mb 0.00 in0.0 mm 0.00 in0.0 mm 0.00 in0.0 mm
09:30 PM 65.8°F18.8°C 65.0°F18.3°C 97% Calm Calm -- 29.92 in1013.2 mb 0.00 in0.0 mm 0.00 in0.0 mm 0.00 in0.0 mm
09:40 PM 65.7°F18.7°C 64.8°F18.2°C 97% Calm Calm -- 29.91 in1012.9 mb 0.00 in0.0 mm 0.00 in0.0 mm 0.00 in0.0 mm
09:50 PM 65.7°F18.7°C 64.8°F18.2°C 97% Calm Calm -- 29.92 in1013.2 mb 0.00 in0.0 mm 0.00 in0.0 mm 0.00 in0.0 mm
10:00 PM 65.7°F18.7°C 65.1°F18.4°C 98% Calm Calm -- 29.92 in1013.2 mb 0.00 in0.0 mm 0.00 in0.0 mm 0.00 in0.0 mm
10:10 PM 65.7°F18.7°C 65.1°F18.4°C 98% Calm Calm -- 29.92 in1013.2 mb 0.00 in0.0 mm 0.00 in0.0 mm 0.00 in0.0 mm
10:20 PM 65.7°F18.7°C 65.4°F18.6°C 99% Calm Calm -- 29.92 in1013.2 mb 0.00 in0.0 mm 0.00 in0.0 mm 0.00 in0.0 mm
10:30 PM 65.7°F18.7°C 65.4°F18.6°C 99% Calm Calm -- 29.92 in1013.2 mb 0.00 in0.0 mm 0.00 in0.0 mm 0.00 in0.0 mm
10:40 PM 65.3°F18.5°C 65.0°F18.3°C 99% Calm Calm -- 29.93 in1013.5 mb 0.00 in0.0 mm 0.00 in0.0 mm 0.00 in0.0 mm
10:50 PM 65.1°F18.4°C 64.9°F18.3°C 99% Calm Calm -- 29.93 in1013.5 mb 0.00 in0.0 mm 0.00 in0.0 mm 0.00 in0.0 mm
11:00 PM 65.1°F18.4°C 64.9°F18.3°C 99% Calm Calm -- 29.92 in1013.2 mb 0.00 in0.0 mm 0.00 in0.0 mm 0.00 in0.0 mm
11:10 PM 64.9°F18.3°C 64.7°F18.2°C 99% Calm Calm -- 29.92 in1013.2 mb 0.00 in0.0 mm 0.00 in0.0 mm 0.00 in0.0 mm
11:20 PM 65.1°F18.4°C 64.9°F18.3°C 99% Calm Calm -- 29.92 in1013.2 mb 0.00 in0.0 mm 0.00 in0.0 mm 0.00 in0.0 mm
11:30 PM 64.9°F18.3°C 64.7°F18.2°C 99% Calm Calm -- 29.92 in1013.2 mb 0.00 in0.0 mm 0.00 in0.0 mm 0.00 in0.0 mm
11:40 PM 64.8°F18.2°C 64.5°F18.1°C 99% Calm Calm -- 29.92 in1013.2 mb 0.00 in0.0 mm 0.00 in0.0 mm 0.00 in0.0 mm
11:50 PM 64.6°F18.1°C 64.3°F17.9°C 99% Calm Calm -- 29.92 in1013.2 mb 0.00 in0.0 mm 0.00 in0.0 mm 0.00 in0.0 mm